createdAt,value
2022-12-17T00:02:17.786Z,4.53
2022-12-17T00:05:03.614Z,4.70
2022-12-17T00:07:49.472Z,4.40
2022-12-17T00:10:35.537Z,4.38
2022-12-17T00:13:21.574Z,4.60
2022-12-17T00:16:11.552Z,5.03
2022-12-17T00:18:57.475Z,4.20
2022-12-17T00:21:43.093Z,4.80
2022-12-17T00:24:28.970Z,4.75
2022-12-17T00:27:14.885Z,4.78
2022-12-17T00:30:02.881Z,4.38
2022-12-17T00:32:48.637Z,4.82
2022-12-17T00:35:34.522Z,4.60
2022-12-17T00:38:20.213Z,4.40
2022-12-17T00:41:10.773Z,4.47
2022-12-17T00:43:56.833Z,4.78
2022-12-17T00:46:42.764Z,5.28
2022-12-17T00:49:29.810Z,4.45
2022-12-17T00:52:17.034Z,4.45
2022-12-17T00:55:02.875Z,4.72
2022-12-17T00:57:48.793Z,4.63
2022-12-17T01:00:34.703Z,4.18
2022-12-17T01:03:29.344Z,4.05
2022-12-17T01:06:15.763Z,4.32
2022-12-17T01:09:01.704Z,4.20
2022-12-17T01:11:47.784Z,4.55
2022-12-17T01:14:34.156Z,4.45
2022-12-17T01:17:21.242Z,4.85
2022-12-17T01:20:08.333Z,4.45
2022-12-17T01:22:54.444Z,4.15
2022-12-17T01:25:46.153Z,4.75
2022-12-17T01:28:32.004Z,4.90
2022-12-17T01:31:17.735Z,4.28
2022-12-17T01:34:03.584Z,4.60
2022-12-17T01:36:49.556Z,5.03
2022-12-17T01:39:37.136Z,4.07
2022-12-17T01:42:22.981Z,4.80
2022-12-17T01:45:12.344Z,4.78
2022-12-17T01:48:09.565Z,4.07
2022-12-17T01:50:58.403Z,4.30
2022-12-17T01:53:47.408Z,3.88
2022-12-17T01:56:34.410Z,4.32
2022-12-17T01:59:22.999Z,4.10
2022-12-17T02:02:08.865Z,4.15
2022-12-17T02:04:55.383Z,4.57
2022-12-17T02:07:50.457Z,4.45
2022-12-17T02:11:00.242Z,4.20
2022-12-17T02:13:53.130Z,4.30
2022-12-17T02:17:10.314Z,4.35
2022-12-17T02:20:09.494Z,4.35
2022-12-17T02:23:39.981Z,4.07
2022-12-17T02:26:48.403Z,4.38
2022-12-17T02:29:34.947Z,4.32
2022-12-17T02:32:22.812Z,4.40
2022-12-17T02:35:11.016Z,4.40
2022-12-17T02:37:57.538Z,3.92
2022-12-17T02:40:43.900Z,4.32
2022-12-17T02:43:31.020Z,4.00
2022-12-17T02:46:20.169Z,4.60
2022-12-17T02:49:05.995Z,4.05
2022-12-17T02:51:52.486Z,4.30
2022-12-17T02:54:38.626Z,4.50
2022-12-17T02:57:24.478Z,4.03
2022-12-17T03:00:10.435Z,4.40
2022-12-17T03:02:56.402Z,4.07
2022-12-17T03:05:45.951Z,4.10
2022-12-17T03:08:32.744Z,3.67
2022-12-17T03:11:18.638Z,3.60
2022-12-17T03:14:04.483Z,4.38
2022-12-17T03:16:50.612Z,4.30
2022-12-17T03:19:39.480Z,3.72
2022-12-17T03:22:25.103Z,3.72
2022-12-17T03:25:10.958Z,3.83
2022-12-17T03:27:56.766Z,3.88
2022-12-17T03:30:47.268Z,3.88
2022-12-17T03:33:35.460Z,3.28
2022-12-17T03:36:21.617Z,4.15
2022-12-17T03:39:07.461Z,3.50
2022-12-17T03:41:53.747Z,4.07
2022-12-17T03:44:39.487Z,3.25
2022-12-17T03:47:25.373Z,3.05
2022-12-17T03:50:11.324Z,3.60
2022-12-17T03:52:57.221Z,3.30
2022-12-17T03:55:42.915Z,3.45
2022-12-17T03:58:28.719Z,3.53
2022-12-17T04:01:14.652Z,3.53
2022-12-17T04:04:00.585Z,3.45
2022-12-17T04:06:48.172Z,3.05
2022-12-17T04:09:33.862Z,3.80
2022-12-17T04:12:31.922Z,3.70
2022-12-17T04:15:17.978Z,3.58
2022-12-17T04:18:03.606Z,3.33
2022-12-17T04:20:49.409Z,3.40
2022-12-17T04:23:35.585Z,3.28
2022-12-17T04:26:21.562Z,3.88
2022-12-17T04:29:07.230Z,3.20
2022-12-17T04:31:52.927Z,3.30
2022-12-17T04:34:38.832Z,3.53
2022-12-17T04:37:24.589Z,3.40
2022-12-17T04:40:10.375Z,3.35
2022-12-17T04:42:55.884Z,3.38
2022-12-17T04:45:41.390Z,3.08
2022-12-17T04:48:28.054Z,4.13
2022-12-17T04:51:13.833Z,3.10
2022-12-17T04:53:59.931Z,3.58
2022-12-17T04:56:46.044Z,3.35
2022-12-17T04:59:32.060Z,3.33
2022-12-17T05:02:18.311Z,3.10
2022-12-17T05:05:04.172Z,2.90
2022-12-17T05:07:49.850Z,2.83
2022-12-17T05:10:35.841Z,3.70
2022-12-17T05:13:21.636Z,3.30
2022-12-17T05:16:07.527Z,3.17
2022-12-17T05:18:53.218Z,3.20
2022-12-17T05:21:38.681Z,3.20
2022-12-17T05:24:24.626Z,3.35
2022-12-17T05:27:10.030Z,2.85
2022-12-17T05:29:56.001Z,3.30
2022-12-17T05:32:41.841Z,3.15
2022-12-17T05:35:27.887Z,2.83
2022-12-17T05:38:13.755Z,3.35
2022-12-17T05:40:59.523Z,3.67
2022-12-17T05:43:45.355Z,2.97
2022-12-17T05:46:31.172Z,2.72
2022-12-17T05:49:16.992Z,2.80
2022-12-17T05:52:16.454Z,2.58
2022-12-17T05:55:02.547Z,2.75
2022-12-17T05:57:53.086Z,3.03
2022-12-17T06:00:42.155Z,2.92
2022-12-17T06:03:28.474Z,3.15
2022-12-17T06:06:15.354Z,2.72
2022-12-17T06:09:01.378Z,3.13
2022-12-17T06:11:47.073Z,2.90
2022-12-17T06:14:33.002Z,3.03
2022-12-17T06:17:19.007Z,2.67
2022-12-17T06:20:04.922Z,2.72
2022-12-17T06:22:50.598Z,3.47
2022-12-17T06:25:36.358Z,3.03
2022-12-17T06:28:22.076Z,3.00
2022-12-17T06:31:12.024Z,2.80
2022-12-17T06:33:59.190Z,2.67
2022-12-17T06:36:45.010Z,2.90
2022-12-17T06:39:30.706Z,2.60
2022-12-17T06:42:16.594Z,2.50
2022-12-17T06:45:02.317Z,3.28
2022-12-17T06:47:48.064Z,3.15
2022-12-17T06:50:33.926Z,2.63
2022-12-17T06:53:25.332Z,2.58
2022-12-17T06:56:11.577Z,3.40
2022-12-17T06:58:57.629Z,3.40
2022-12-17T07:01:43.644Z,2.78
2022-12-17T07:04:29.980Z,2.70
2022-12-17T07:07:15.949Z,2.90
2022-12-17T07:10:01.599Z,2.67
2022-12-17T07:12:47.381Z,2.78
2022-12-17T07:15:33.484Z,3.20
2022-12-17T07:18:21.436Z,2.95
2022-12-17T07:21:07.749Z,3.13
2022-12-17T07:23:53.610Z,2.63
2022-12-17T07:26:39.365Z,2.95
2022-12-17T07:29:25.291Z,2.88
2022-12-17T07:32:11.190Z,2.65
2022-12-17T07:34:56.897Z,3.08
2022-12-17T07:37:47.247Z,2.83
2022-12-17T07:40:33.302Z,2.75
2022-12-17T07:43:19.047Z,2.83
2022-12-17T07:46:05.128Z,2.42
2022-12-17T07:48:51.003Z,2.92
2022-12-17T07:51:36.799Z,2.97
2022-12-17T07:54:22.717Z,2.90
2022-12-17T07:57:08.533Z,2.90
2022-12-17T07:59:54.442Z,2.85
2022-12-17T08:02:40.628Z,3.13
2022-12-17T08:05:27.016Z,2.70
2022-12-17T08:08:13.012Z,3.13
2022-12-17T08:10:58.708Z,2.92
2022-12-17T08:13:44.539Z,2.78
2022-12-17T08:16:30.376Z,2.63
2022-12-17T08:19:16.117Z,3.03
2022-12-17T08:22:01.823Z,3.10
2022-12-17T08:24:47.694Z,2.92
2022-12-17T08:27:33.790Z,3.20
2022-12-17T08:30:19.515Z,3.20
2022-12-17T08:33:05.612Z,2.97
2022-12-17T08:35:51.447Z,3.20
2022-12-17T08:38:37.435Z,3.58
2022-12-17T08:41:23.250Z,3.35
2022-12-17T08:44:09.281Z,2.92
2022-12-17T08:46:55.106Z,3.47
2022-12-17T08:49:40.736Z,2.95
2022-12-17T08:52:26.528Z,5.65
2022-12-17T08:55:12.321Z,4.18
2022-12-17T08:57:58.055Z,4.10
2022-12-17T09:00:43.821Z,4.03
2022-12-17T09:03:29.823Z,3.70
2022-12-17T09:06:15.577Z,3.55
2022-12-17T09:09:01.414Z,3.60
2022-12-17T09:11:47.585Z,3.03
2022-12-17T09:14:33.172Z,3.70
2022-12-17T09:17:19.175Z,3.15
2022-12-17T09:20:05.110Z,3.60
2022-12-17T09:22:50.951Z,3.60
2022-12-17T09:25:36.569Z,3.17
2022-12-17T09:28:22.950Z,3.95
2022-12-17T09:31:08.980Z,3.35
2022-12-17T09:33:55.947Z,3.55
2022-12-17T09:36:45.351Z,3.60
2022-12-17T09:42:50.968Z,2.85
2022-12-17T09:56:05.014Z,3.75
2022-12-17T09:58:57.252Z,4.32
2022-12-17T10:01:52.830Z,6.45
2022-12-17T10:04:57.279Z,4.88
2022-12-17T10:07:46.790Z,5.20
2022-12-17T10:10:41.402Z,4.90
2022-12-17T10:13:39.805Z,5.50
2022-12-17T10:16:42.535Z,4.97
2022-12-17T10:19:53.309Z,4.38
2022-12-17T10:22:39.823Z,6.32
2022-12-17T10:25:40.486Z,5.65
2022-12-17T10:28:31.353Z,5.30
2022-12-17T10:31:19.170Z,5.95
2022-12-17T10:34:05.634Z,4.70
2022-12-17T10:36:51.764Z,5.10
2022-12-17T10:39:46.706Z,5.45
2022-12-17T10:42:46.717Z,5.93
2022-12-17T10:45:50.662Z,4.25
2022-12-17T10:48:48.823Z,4.53
2022-12-17T10:51:52.544Z,5.05
2022-12-17T10:54:47.032Z,5.45
2022-12-17T10:57:52.975Z,4.32
2022-12-17T11:00:58.148Z,4.03
2022-12-17T11:03:49.090Z,3.97
2022-12-17T11:06:51.863Z,3.92
2022-12-17T11:09:40.887Z,4.60
2022-12-17T11:12:31.215Z,4.60
2022-12-17T11:15:27.553Z,4.82
2022-12-17T11:18:14.241Z,4.55
2022-12-17T11:21:34.498Z,8.43
2022-12-17T11:24:22.900Z,9.48
2022-12-17T11:27:12.606Z,11.10
2022-12-17T11:29:58.552Z,10.20
2022-12-17T11:33:18.770Z,10.13
2022-12-17T11:36:32.454Z,9.07
2022-12-17T11:39:24.472Z,7.15
2022-12-17T11:42:22.391Z,6.50
2022-12-17T11:45:08.097Z,6.47
2022-12-17T11:48:18.554Z,5.72
2022-12-17T11:51:12.001Z,5.65
2022-12-17T11:54:13.703Z,5.20
2022-12-17T11:57:16.177Z,5.20
2022-12-17T12:00:32.006Z,5.10
2022-12-17T12:03:20.793Z,4.82
2022-12-17T12:06:17.858Z,5.53
2022-12-17T12:09:38.494Z,5.07
2022-12-17T12:13:03.796Z,4.47
2022-12-17T12:16:19.067Z,4.28
2022-12-17T12:19:37.069Z,4.65
2022-12-17T12:22:37.642Z,4.20
2022-12-17T12:25:44.700Z,4.35
2022-12-17T12:28:56.371Z,3.92
2022-12-17T12:32:00.361Z,3.63
2022-12-17T12:34:51.052Z,3.97
2022-12-17T12:37:39.249Z,4.07
2022-12-17T12:40:33.966Z,4.30
2022-12-17T12:43:25.797Z,4.60
2022-12-17T12:46:20.449Z,4.55
2022-12-17T12:49:15.545Z,4.18
2022-12-17T12:52:02.018Z,3.80
2022-12-17T12:54:50.726Z,3.70
2022-12-17T12:57:48.481Z,4.13
2022-12-17T13:00:52.689Z,3.67
2022-12-17T13:03:59.160Z,3.25
2022-12-17T13:06:44.711Z,3.88
2022-12-17T13:09:18.172Z,3.45
2022-12-17T13:11:54.677Z,3.47
2022-12-17T13:14:33.864Z,3.08
2022-12-17T13:17:16.120Z,2.88
2022-12-17T13:19:56.368Z,3.45
2022-12-17T13:22:24.566Z,4.35
2022-12-17T13:24:55.418Z,3.97
2022-12-17T13:27:35.033Z,3.20
2022-12-17T13:30:36.190Z,3.22
2022-12-17T13:33:23.627Z,3.15
2022-12-17T13:36:15.838Z,3.13
2022-12-17T13:38:45.805Z,3.90
2022-12-17T13:41:19.242Z,3.53
2022-12-17T13:44:21.890Z,3.38
2022-12-17T13:46:50.865Z,3.20
2022-12-17T13:49:28.400Z,3.20
2022-12-17T13:52:23.475Z,3.55
2022-12-17T13:54:51.282Z,3.63
2022-12-17T13:57:24.584Z,3.15
2022-12-17T13:59:59.284Z,3.67
2022-12-17T14:02:28.558Z,3.17
2022-12-17T14:04:59.131Z,3.38
2022-12-17T14:07:30.107Z,3.15
2022-12-17T14:09:57.679Z,3.20
2022-12-17T14:12:26.892Z,3.50
2022-12-17T14:15:08.480Z,2.95
2022-12-17T14:17:37.369Z,3.25
2022-12-17T14:20:13.403Z,3.00
2022-12-17T14:22:51.090Z,3.15
2022-12-17T14:25:21.753Z,2.85
2022-12-17T14:27:57.013Z,2.75
2022-12-17T14:30:33.353Z,3.03
2022-12-17T14:33:00.832Z,3.50
2022-12-17T14:35:31.861Z,3.33
2022-12-17T14:37:59.198Z,3.08
2022-12-17T14:40:26.764Z,2.70
2022-12-17T14:42:59.579Z,2.90
2022-12-17T14:45:28.507Z,2.92
2022-12-17T14:48:01.440Z,3.10
2022-12-17T14:50:34.812Z,3.10
2022-12-17T14:53:23.024Z,3.33
2022-12-17T14:55:57.268Z,2.75
2022-12-17T14:58:26.680Z,2.75
2022-12-17T15:01:03.831Z,2.88
2022-12-17T15:03:39.983Z,2.70
2022-12-17T15:06:10.182Z,2.63
2022-12-17T15:08:41.836Z,2.35
2022-12-17T15:11:12.488Z,2.85
2022-12-17T15:13:40.579Z,2.50
2022-12-17T15:16:08.494Z,2.75
2022-12-17T15:18:36.218Z,2.78
2022-12-17T15:21:04.231Z,2.53
2022-12-17T15:23:32.145Z,3.33
2022-12-17T15:25:59.432Z,3.10
2022-12-17T15:28:26.711Z,3.15
2022-12-17T15:30:54.203Z,2.88
2022-12-17T15:33:21.574Z,3.50
2022-12-17T15:35:49.126Z,3.38
2022-12-17T15:38:16.438Z,3.05
2022-12-17T15:40:43.820Z,3.10
2022-12-17T15:43:12.577Z,3.10
2022-12-17T15:45:48.523Z,3.20
2022-12-17T15:48:24.867Z,3.53
2022-12-17T15:50:53.725Z,3.10
2022-12-17T15:53:20.998Z,3.30
2022-12-17T15:55:48.206Z,3.20
2022-12-17T15:58:16.324Z,3.13
2022-12-17T16:00:43.626Z,3.15
2022-12-17T16:03:11.075Z,3.25
2022-12-17T16:05:38.507Z,3.28
2022-12-17T16:08:05.972Z,3.80
2022-12-17T16:10:33.322Z,3.70
2022-12-17T16:13:00.675Z,3.30
2022-12-17T16:15:28.146Z,3.22
2022-12-17T16:17:55.624Z,3.38
2022-12-17T16:20:23.880Z,3.20
2022-12-17T16:22:51.180Z,3.30
2022-12-17T16:25:18.946Z,3.42
2022-12-17T16:27:46.259Z,3.70
2022-12-17T16:30:14.233Z,3.22
2022-12-17T16:32:41.539Z,3.60
2022-12-17T16:35:09.237Z,3.33
2022-12-17T16:37:36.521Z,2.95
2022-12-17T16:40:04.285Z,3.25
2022-12-17T16:42:31.627Z,3.33
2022-12-17T16:44:58.962Z,2.97
2022-12-17T16:47:26.224Z,3.60
2022-12-17T16:49:53.522Z,3.15
2022-12-17T16:52:20.789Z,3.67
2022-12-17T16:54:48.549Z,3.30
2022-12-17T16:57:15.799Z,3.65
2022-12-17T16:59:43.168Z,3.70
2022-12-17T17:02:14.878Z,3.72
2022-12-17T17:04:42.196Z,3.53
2022-12-17T17:07:09.488Z,3.42
2022-12-17T17:09:37.918Z,3.35
2022-12-17T17:12:05.619Z,3.35
2022-12-17T17:14:32.785Z,3.78
2022-12-17T17:17:00.079Z,3.10
2022-12-17T17:19:27.425Z,3.50
2022-12-17T17:21:54.770Z,3.42
2022-12-17T17:24:25.447Z,3.50
2022-12-17T17:26:54.234Z,3.78
2022-12-17T17:29:21.602Z,3.47
2022-12-17T17:34:36.720Z,3.28
2022-12-17T17:37:03.984Z,3.78
2022-12-17T17:39:33.262Z,3.70
2022-12-17T17:42:01.199Z,4.25
2022-12-17T17:44:28.569Z,3.33
2022-12-17T17:46:55.995Z,4.15
2022-12-17T17:49:23.485Z,4.35
2022-12-17T17:54:39.763Z,3.95
2022-12-17T17:57:07.946Z,3.92
2022-12-17T17:59:35.292Z,3.75
2022-12-17T18:02:03.543Z,4.00
2022-12-17T18:04:32.092Z,4.22
2022-12-17T18:09:46.747Z,4.28
2022-12-17T18:12:32.449Z,4.60
2022-12-17T18:15:16.973Z,4.30
2022-12-17T18:17:50.435Z,4.50
2022-12-17T18:20:18.082Z,4.15
2022-12-17T18:22:46.490Z,4.60
2022-12-17T18:25:15.631Z,4.45
2022-12-17T18:27:44.224Z,5.00
2022-12-17T18:30:11.989Z,5.30
2022-12-17T18:32:39.428Z,4.25
2022-12-17T18:35:07.272Z,4.90
2022-12-17T18:37:34.683Z,4.80
2022-12-17T18:40:02.425Z,4.50
2022-12-17T18:42:48.606Z,4.90
2022-12-17T18:45:16.065Z,5.22
2022-12-17T18:47:44.570Z,4.88
2022-12-17T18:50:12.972Z,4.95
2022-12-17T18:52:41.508Z,4.88
2022-12-17T18:55:08.799Z,4.65
2022-12-17T18:57:36.162Z,4.55
2022-12-17T19:00:04.441Z,5.15
2022-12-17T19:02:31.827Z,4.95
2022-12-17T19:04:59.272Z,6.00
2022-12-17T19:07:26.588Z,4.80
2022-12-17T19:09:53.904Z,5.40
2022-12-17T19:12:21.169Z,5.40
2022-12-17T19:14:48.422Z,5.22
2022-12-17T19:17:15.725Z,5.38
2022-12-17T19:19:43.108Z,5.00
2022-12-17T19:22:10.434Z,5.57
2022-12-17T19:24:37.755Z,4.93
2022-12-17T19:27:04.969Z,5.60
2022-12-17T19:29:32.249Z,5.28
2022-12-17T19:32:00.282Z,5.40
2022-12-17T19:34:27.698Z,5.70
2022-12-17T19:36:55.048Z,5.45
2022-12-17T19:39:22.385Z,6.15
2022-12-17T19:41:51.011Z,5.95
2022-12-17T19:44:20.503Z,6.53
2022-12-17T19:46:48.079Z,5.50
2022-12-17T19:49:17.027Z,5.97
2022-12-17T19:51:44.778Z,5.70
2022-12-17T19:54:15.154Z,6.50
2022-12-17T19:56:44.688Z,6.30
2022-12-17T19:59:12.936Z,5.65
2022-12-17T20:01:45.920Z,6.15
2022-12-17T20:06:42.950Z,6.10
2022-12-17T20:09:10.644Z,6.05
2022-12-17T20:11:38.380Z,6.45
2022-12-17T20:14:15.789Z,6.60
2022-12-17T20:16:51.964Z,5.97
2022-12-17T20:19:27.719Z,7.05
2022-12-17T20:21:55.445Z,6.70
2022-12-17T20:24:30.364Z,6.38
2022-12-17T20:26:59.201Z,5.90
2022-12-17T20:29:27.359Z,6.55
2022-12-17T20:31:55.419Z,6.47
2022-12-17T20:34:24.353Z,6.70
2022-12-17T20:36:52.859Z,6.45
2022-12-17T20:39:26.162Z,7.28
2022-12-17T20:41:54.375Z,6.78
2022-12-17T20:44:21.711Z,6.13
2022-12-17T20:46:48.963Z,6.68
2022-12-17T20:49:16.191Z,6.70
2022-12-17T20:51:43.636Z,7.07
2022-12-17T20:54:11.684Z,7.20
2022-12-17T20:56:39.903Z,6.68
2022-12-17T20:59:09.684Z,7.20
2022-12-17T21:01:37.757Z,6.32
2022-12-17T21:04:07.517Z,6.82
2022-12-17T21:06:46.001Z,7.32
2022-12-17T21:09:15.696Z,6.90
2022-12-17T21:11:43.007Z,7.25
2022-12-17T21:14:14.234Z,6.75
2022-12-17T21:16:42.856Z,6.47
2022-12-17T21:19:13.584Z,6.32
2022-12-17T21:21:41.424Z,6.80
2022-12-17T21:24:10.550Z,6.50
2022-12-17T21:26:40.895Z,5.88
2022-12-17T21:29:09.771Z,7.30
2022-12-17T21:31:42.768Z,6.22
2022-12-17T21:36:44.993Z,6.47
2022-12-17T21:39:13.760Z,6.97
2022-12-17T21:41:44.997Z,6.30
2022-12-17T21:44:14.496Z,6.88
2022-12-17T21:46:49.912Z,6.22
2022-12-17T21:49:18.000Z,6.60
2022-12-17T21:51:45.488Z,6.90
2022-12-17T21:54:18.908Z,6.05
2022-12-17T21:56:48.013Z,7.32
2022-12-17T21:59:15.621Z,7.03
2022-12-17T22:01:43.126Z,6.63
2022-12-17T22:04:10.481Z,6.85
2022-12-17T22:06:44.674Z,6.68
2022-12-17T22:09:26.337Z,6.03
2022-12-17T22:12:19.128Z,6.88
2022-12-17T22:14:47.462Z,6.40
2022-12-17T22:17:14.711Z,6.07
2022-12-17T22:19:42.048Z,6.65
2022-12-17T22:22:09.326Z,6.28
2022-12-17T22:24:36.856Z,6.78
2022-12-17T22:27:05.789Z,6.35
2022-12-17T22:29:55.658Z,6.55
2022-12-17T22:32:41.704Z,6.50
2022-12-17T22:36:32.136Z,6.53
2022-12-17T22:40:43.328Z,6.20
2022-12-17T22:44:33.534Z,6.30
2022-12-17T22:44:42.079Z,5.85
2022-12-17T22:46:19.576Z,6.35
2022-12-17T22:48:47.271Z,5.75
2022-12-17T22:51:17.303Z,5.95
2022-12-17T22:53:47.313Z,6.47
2022-12-17T22:56:25.123Z,6.43
2022-12-17T22:59:03.041Z,6.38
2022-12-17T23:01:30.747Z,5.63
2022-12-17T23:03:59.942Z,6.18
2022-12-17T23:06:27.933Z,5.93
2022-12-17T23:08:56.044Z,5.65
2022-12-17T23:11:26.015Z,5.78
2022-12-17T23:13:54.150Z,5.15
2022-12-17T23:16:21.617Z,5.72
2022-12-17T23:18:50.373Z,5.40
2022-12-17T23:21:24.076Z,5.57
2022-12-17T23:23:53.370Z,5.03
2022-12-17T23:26:31.120Z,5.18
2022-12-17T23:29:01.790Z,4.68
2022-12-17T23:31:33.987Z,5.15
2022-12-17T23:34:01.383Z,5.87
2022-12-17T23:36:29.468Z,4.88
2022-12-17T23:38:57.416Z,4.82
2022-12-17T23:41:27.985Z,4.70
2022-12-17T23:43:56.370Z,4.68
2022-12-17T23:46:25.470Z,4.82
2022-12-17T23:48:53.110Z,5.07
2022-12-17T23:51:22.846Z,4.20
2022-12-17T23:53:50.687Z,4.72
2022-12-17T23:56:20.910Z,4.43
2022-12-17T23:58:51.911Z,4.88
